sensor_id;sensor_type;location;lat;lon;timestamp;P1;durP1;ratioP1;P2;durP2;ratioP2
4652;SDS011;9900;48.738;9.306;2022-08-01T00:01:46;6.50;;;3.27;;
4652;SDS011;9900;48.738;9.306;2022-08-01T00:04:15;6.00;;;3.60;;
4652;SDS011;9900;48.738;9.306;2022-08-01T00:06:44;3.87;;;3.37;;
4652;SDS011;9900;48.738;9.306;2022-08-01T00:09:12;3.77;;;2.80;;
4652;SDS011;9900;48.738;9.306;2022-08-01T00:11:50;3.50;;;2.47;;
4652;SDS011;9900;48.738;9.306;2022-08-01T00:14:37;2.77;;;2.57;;
4652;SDS011;9900;48.738;9.306;2022-08-01T00:17:06;6.43;;;3.30;;
4652;SDS011;9900;48.738;9.306;2022-08-01T00:19:34;5.47;;;2.80;;
4652;SDS011;9900;48.738;9.306;2022-08-01T00:22:03;10.10;;;3.13;;
4652;SDS011;9900;48.738;9.306;2022-08-01T00:24:32;9.13;;;2.67;;
4652;SDS011;9900;48.738;9.306;2022-08-01T00:27:01;3.43;;;2.77;;
4652;SDS011;9900;48.738;9.306;2022-08-01T00:29:30;5.30;;;2.47;;
4652;SDS011;9900;48.738;9.306;2022-08-01T00:32:20;4.20;;;2.63;;
4652;SDS011;9900;48.738;9.306;2022-08-01T00:34:50;5.53;;;2.77;;
4652;SDS011;9900;48.738;9.306;2022-08-01T00:37:19;3.20;;;2.73;;
4652;SDS011;9900;48.738;9.306;2022-08-01T00:39:48;3.70;;;2.67;;
4652;SDS011;9900;48.738;9.306;2022-08-01T00:42:17;3.30;;;3.00;;
4652;SDS011;9900;48.738;9.306;2022-08-01T00:44:45;4.17;;;2.63;;
4652;SDS011;9900;48.738;9.306;2022-08-01T00:47:14;4.83;;;2.93;;
4652;SDS011;9900;48.738;9.306;2022-08-01T00:49:45;4.73;;;2.50;;
4652;SDS011;9900;48.738;9.306;2022-08-01T00:52:14;3.40;;;3.10;;
4652;SDS011;9900;48.738;9.306;2022-08-01T00:54:42;6.53;;;4.10;;
4652;SDS011;9900;48.738;9.306;2022-08-01T00:57:13;4.57;;;3.77;;
4652;SDS011;9900;48.738;9.306;2022-08-01T00:59:54;2.70;;;2.50;;
4652;SDS011;9900;48.738;9.306;2022-08-01T01:02:25;3.77;;;3.30;;
4652;SDS011;9900;48.738;9.306;2022-08-01T01:04:55;4.20;;;3.10;;
4652;SDS011;9900;48.738;9.306;2022-08-01T01:13:02;5.30;;;3.30;;
4652;SDS011;9900;48.738;9.306;2022-08-01T01:15:33;4.20;;;3.03;;
4652;SDS011;9900;48.738;9.306;2022-08-01T01:18:38;9.40;;;2.77;;
4652;SDS011;9900;48.738;9.306;2022-08-01T01:24:40;3.47;;;2.93;;
4652;SDS011;9900;48.738;9.306;2022-08-01T01:27:18;4.17;;;3.03;;
4652;SDS011;9900;48.738;9.306;2022-08-01T01:29:52;5.37;;;2.87;;
4652;SDS011;9900;48.738;9.306;2022-08-01T01:32:28;4.73;;;3.03;;
4652;SDS011;9900;48.738;9.306;2022-08-01T01:35:02;7.23;;;2.60;;
4652;SDS011;9900;48.738;9.306;2022-08-01T01:37:34;4.53;;;3.03;;
4652;SDS011;9900;48.738;9.306;2022-08-01T01:40:04;5.03;;;2.67;;
4652;SDS011;9900;48.738;9.306;2022-08-01T01:42:34;3.10;;;2.80;;
4652;SDS011;9900;48.738;9.306;2022-08-01T01:45:05;10.47;;;3.10;;
4652;SDS011;9900;48.738;9.306;2022-08-01T01:47:35;4.67;;;2.40;;
4652;SDS011;9900;48.738;9.306;2022-08-01T01:50:05;3.37;;;2.63;;
4652;SDS011;9900;48.738;9.306;2022-08-01T01:52:36;6.67;;;2.83;;
4652;SDS011;9900;48.738;9.306;2022-08-01T01:55:08;3.77;;;2.77;;
4652;SDS011;9900;48.738;9.306;2022-08-01T01:57:37;3.37;;;2.50;;
4652;SDS011;9900;48.738;9.306;2022-08-01T02:00:09;4.10;;;2.50;;
4652;SDS011;9900;48.738;9.306;2022-08-01T02:02:39;3.90;;;2.60;;
4652;SDS011;9900;48.738;9.306;2022-08-01T02:05:10;4.43;;;2.60;;
4652;SDS011;9900;48.738;9.306;2022-08-01T02:07:39;2.90;;;2.40;;
4652;SDS011;9900;48.738;9.306;2022-08-01T02:10:10;2.90;;;2.60;;
4652;SDS011;9900;48.738;9.306;2022-08-01T02:12:41;4.10;;;2.20;;
4652;SDS011;9900;48.738;9.306;2022-08-01T02:15:11;5.63;;;2.60;;
4652;SDS011;9900;48.738;9.306;2022-08-01T02:17:41;3.60;;;2.60;;
4652;SDS011;9900;48.738;9.306;2022-08-01T02:20:13;4.07;;;2.40;;
4652;SDS011;9900;48.738;9.306;2022-08-01T02:22:44;10.23;;;2.53;;
4652;SDS011;9900;48.738;9.306;2022-08-01T02:25:17;5.27;;;2.63;;
4652;SDS011;9900;48.738;9.306;2022-08-01T02:27:50;12.10;;;2.77;;
4652;SDS011;9900;48.738;9.306;2022-08-01T02:30:24;8.27;;;3.03;;
4652;SDS011;9900;48.738;9.306;2022-08-01T02:33:02;3.20;;;2.30;;
4652;SDS011;9900;48.738;9.306;2022-08-01T02:35:33;5.13;;;2.83;;
4652;SDS011;9900;48.738;9.306;2022-08-01T02:38:24;2.80;;;2.20;;
4652;SDS011;9900;48.738;9.306;2022-08-01T02:40:54;5.10;;;2.57;;
4652;SDS011;9900;48.738;9.306;2022-08-01T02:43:26;6.23;;;2.77;;
4652;SDS011;9900;48.738;9.306;2022-08-01T02:46:00;5.63;;;2.73;;
4652;SDS011;9900;48.738;9.306;2022-08-01T02:48:30;7.63;;;2.50;;
4652;SDS011;9900;48.738;9.306;2022-08-01T02:51:02;4.33;;;3.00;;
4652;SDS011;9900;48.738;9.306;2022-08-01T02:53:32;5.57;;;3.00;;
4652;SDS011;9900;48.738;9.306;2022-08-01T02:56:10;4.20;;;2.63;;
4652;SDS011;9900;48.738;9.306;2022-08-01T02:58:40;3.93;;;2.90;;
4652;SDS011;9900;48.738;9.306;2022-08-01T03:01:10;3.30;;;2.57;;
4652;SDS011;9900;48.738;9.306;2022-08-01T03:03:40;3.40;;;2.80;;
4652;SDS011;9900;48.738;9.306;2022-08-01T03:06:09;3.30;;;2.80;;
4652;SDS011;9900;48.738;9.306;2022-08-01T03:08:39;5.83;;;2.73;;
4652;SDS011;9900;48.738;9.306;2022-08-01T03:11:08;6.53;;;3.10;;
4652;SDS011;9900;48.738;9.306;2022-08-01T03:13:37;4.70;;;2.97;;
4652;SDS011;9900;48.738;9.306;2022-08-01T03:16:06;4.57;;;3.03;;
4652;SDS011;9900;48.738;9.306;2022-08-01T03:18:38;6.10;;;3.00;;
4652;SDS011;9900;48.738;9.306;2022-08-01T03:21:08;6.30;;;3.07;;
4652;SDS011;9900;48.738;9.306;2022-08-01T03:23:38;4.27;;;3.43;;
4652;SDS011;9900;48.738;9.306;2022-08-01T03:26:07;5.70;;;2.90;;
4652;SDS011;9900;48.738;9.306;2022-08-01T03:28:37;6.13;;;3.17;;
4652;SDS011;9900;48.738;9.306;2022-08-01T03:31:07;6.53;;;2.77;;
4652;SDS011;9900;48.738;9.306;2022-08-01T03:33:35;6.60;;;2.80;;
4652;SDS011;9900;48.738;9.306;2022-08-01T03:36:06;5.33;;;2.77;;
4652;SDS011;9900;48.738;9.306;2022-08-01T03:38:38;4.03;;;2.50;;
4652;SDS011;9900;48.738;9.306;2022-08-01T03:41:09;6.60;;;2.87;;
4652;SDS011;9900;48.738;9.306;2022-08-01T03:43:38;4.13;;;3.13;;
4652;SDS011;9900;48.738;9.306;2022-08-01T03:46:11;4.67;;;3.33;;
4652;SDS011;9900;48.738;9.306;2022-08-01T03:48:47;3.30;;;2.80;;
4652;SDS011;9900;48.738;9.306;2022-08-01T03:51:17;9.60;;;3.63;;
4652;SDS011;9900;48.738;9.306;2022-08-01T03:53:46;4.03;;;3.07;;
4652;SDS011;9900;48.738;9.306;2022-08-01T03:56:16;6.87;;;3.43;;
4652;SDS011;9900;48.738;9.306;2022-08-01T03:58:47;4.10;;;3.00;;
4652;SDS011;9900;48.738;9.306;2022-08-01T04:01:16;4.43;;;2.90;;
4652;SDS011;9900;48.738;9.306;2022-08-01T04:03:47;3.90;;;3.50;;
4652;SDS011;9900;48.738;9.306;2022-08-01T04:06:22;3.60;;;3.07;;
4652;SDS011;9900;48.738;9.306;2022-08-01T04:08:51;4.53;;;2.90;;
4652;SDS011;9900;48.738;9.306;2022-08-01T04:11:26;6.13;;;2.80;;
4652;SDS011;9900;48.738;9.306;2022-08-01T04:13:56;25.43;;;3.80;;
4652;SDS011;9900;48.738;9.306;2022-08-01T04:16:25;4.50;;;3.13;;
4652;SDS011;9900;48.738;9.306;2022-08-01T04:18:55;13.67;;;3.57;;
4652;SDS011;9900;48.738;9.306;2022-08-01T04:21:24;4.97;;;3.47;;
4652;SDS011;9900;48.738;9.306;2022-08-01T04:23:56;6.33;;;3.27;;
4652;SDS011;9900;48.738;9.306;2022-08-01T04:26:27;5.30;;;3.00;;
4652;SDS011;9900;48.738;9.306;2022-08-01T04:28:58;5.13;;;3.30;;
4652;SDS011;9900;48.738;9.306;2022-08-01T04:31:29;4.60;;;3.10;;
4652;SDS011;9900;48.738;9.306;2022-08-01T04:34:00;5.70;;;3.13;;
4652;SDS011;9900;48.738;9.306;2022-08-01T04:36:32;4.77;;;3.30;;
4652;SDS011;9900;48.738;9.306;2022-08-01T04:39:04;7.20;;;3.03;;
4652;SDS011;9900;48.738;9.306;2022-08-01T04:41:33;5.07;;;3.50;;
4652;SDS011;9900;48.738;9.306;2022-08-01T04:44:03;5.50;;;3.57;;
4652;SDS011;9900;48.738;9.306;2022-08-01T04:46:34;7.20;;;3.50;;
4652;SDS011;9900;48.738;9.306;2022-08-01T04:49:05;9.43;;;3.80;;
4652;SDS011;9900;48.738;9.306;2022-08-01T04:51:36;5.47;;;3.83;;
4652;SDS011;9900;48.738;9.306;2022-08-01T04:54:05;5.70;;;3.33;;
4652;SDS011;9900;48.738;9.306;2022-08-01T04:56:34;6.77;;;3.73;;
4652;SDS011;9900;48.738;9.306;2022-08-01T04:59:03;8.23;;;3.73;;
4652;SDS011;9900;48.738;9.306;2022-08-01T05:01:50;6.50;;;4.10;;
4652;SDS011;9900;48.738;9.306;2022-08-01T05:04:20;8.60;;;4.10;;
4652;SDS011;9900;48.738;9.306;2022-08-01T05:06:49;6.70;;;3.83;;
4652;SDS011;9900;48.738;9.306;2022-08-01T05:09:18;6.00;;;3.50;;
4652;SDS011;9900;48.738;9.306;2022-08-01T05:11:47;6.10;;;3.60;;
4652;SDS011;9900;48.738;9.306;2022-08-01T05:14:16;7.53;;;3.90;;
4652;SDS011;9900;48.738;9.306;2022-08-01T05:16:45;3.97;;;3.33;;
4652;SDS011;9900;48.738;9.306;2022-08-01T05:19:14;5.40;;;3.73;;
4652;SDS011;9900;48.738;9.306;2022-08-01T05:21:45;7.43;;;4.17;;
4652;SDS011;9900;48.738;9.306;2022-08-01T05:24:13;10.93;;;3.40;;
4652;SDS011;9900;48.738;9.306;2022-08-01T05:26:42;6.37;;;3.60;;
4652;SDS011;9900;48.738;9.306;2022-08-01T05:29:14;4.57;;;2.80;;
4652;SDS011;9900;48.738;9.306;2022-08-01T05:31:43;7.87;;;3.63;;
4652;SDS011;9900;48.738;9.306;2022-08-01T05:34:12;5.90;;;3.60;;
4652;SDS011;9900;48.738;9.306;2022-08-01T05:36:41;6.17;;;3.60;;
4652;SDS011;9900;48.738;9.306;2022-08-01T05:39:12;9.23;;;4.60;;
4652;SDS011;9900;48.738;9.306;2022-08-01T05:41:41;4.97;;;3.73;;
4652;SDS011;9900;48.738;9.306;2022-08-01T05:44:10;7.70;;;3.60;;
4652;SDS011;9900;48.738;9.306;2022-08-01T05:46:39;6.57;;;4.00;;
4652;SDS011;9900;48.738;9.306;2022-08-01T05:49:08;11.87;;;3.80;;
4652;SDS011;9900;48.738;9.306;2022-08-01T05:51:36;8.90;;;3.80;;
4652;SDS011;9900;48.738;9.306;2022-08-01T05:54:05;6.53;;;3.37;;
4652;SDS011;9900;48.738;9.306;2022-08-01T05:56:36;6.50;;;3.20;;
4652;SDS011;9900;48.738;9.306;2022-08-01T05:59:05;5.73;;;2.97;;
4652;SDS011;9900;48.738;9.306;2022-08-01T06:01:33;4.43;;;3.07;;
4652;SDS011;9900;48.738;9.306;2022-08-01T06:04:02;4.10;;;3.20;;
4652;SDS011;9900;48.738;9.306;2022-08-01T06:06:31;4.35;;;3.30;;
4652;SDS011;9900;48.738;9.306;2022-08-01T06:09:00;3.90;;;3.00;;
4652;SDS011;9900;48.738;9.306;2022-08-01T06:11:29;7.77;;;3.07;;
4652;SDS011;9900;48.738;9.306;2022-08-01T06:14:00;4.20;;;2.93;;
4652;SDS011;9900;48.738;9.306;2022-08-01T06:16:28;3.63;;;3.10;;
4652;SDS011;9900;48.738;9.306;2022-08-01T06:18:57;3.80;;;2.90;;
4652;SDS011;9900;48.738;9.306;2022-08-01T06:21:26;6.43;;;3.10;;
4652;SDS011;9900;48.738;9.306;2022-08-01T06:23:55;4.17;;;2.70;;
4652;SDS011;9900;48.738;9.306;2022-08-01T06:26:24;4.60;;;2.50;;
4652;SDS011;9900;48.738;9.306;2022-08-01T06:28:53;4.43;;;3.00;;
4652;SDS011;9900;48.738;9.306;2022-08-01T06:31:23;7.20;;;2.97;;
4652;SDS011;9900;48.738;9.306;2022-08-01T06:33:59;4.77;;;2.83;;
4652;SDS011;9900;48.738;9.306;2022-08-01T06:36:27;3.37;;;3.00;;
4652;SDS011;9900;48.738;9.306;2022-08-01T06:38:56;7.57;;;3.37;;
4652;SDS011;9900;48.738;9.306;2022-08-01T06:41:25;4.10;;;3.07;;
4652;SDS011;9900;48.738;9.306;2022-08-01T06:43:54;6.37;;;3.07;;
4652;SDS011;9900;48.738;9.306;2022-08-01T06:46:24;4.23;;;2.60;;
4652;SDS011;9900;48.738;9.306;2022-08-01T06:48:58;5.77;;;3.00;;
4652;SDS011;9900;48.738;9.306;2022-08-01T06:51:27;7.67;;;2.40;;
4652;SDS011;9900;48.738;9.306;2022-08-01T06:53:56;3.67;;;2.73;;
4652;SDS011;9900;48.738;9.306;2022-08-01T06:56:25;7.23;;;3.07;;
4652;SDS011;9900;48.738;9.306;2022-08-01T06:58:54;6.13;;;2.80;;
4652;SDS011;9900;48.738;9.306;2022-08-01T07:01:29;3.80;;;2.63;;
4652;SDS011;9900;48.738;9.306;2022-08-01T07:04:01;4.87;;;2.80;;
4652;SDS011;9900;48.738;9.306;2022-08-01T07:06:30;5.07;;;2.70;;
4652;SDS011;9900;48.738;9.306;2022-08-01T07:08:59;8.03;;;2.80;;
4652;SDS011;9900;48.738;9.306;2022-08-01T07:11:37;3.53;;;2.57;;
4652;SDS011;9900;48.738;9.306;2022-08-01T07:14:05;3.67;;;2.60;;
4652;SDS011;9900;48.738;9.306;2022-08-01T07:16:36;3.90;;;2.63;;
4652;SDS011;9900;48.738;9.306;2022-08-01T07:19:05;4.57;;;2.60;;
4652;SDS011;9900;48.738;9.306;2022-08-01T07:21:35;3.10;;;2.70;;
4652;SDS011;9900;48.738;9.306;2022-08-01T07:24:07;3.90;;;2.50;;
4652;SDS011;9900;48.738;9.306;2022-08-01T07:26:40;4.30;;;2.47;;
4652;SDS011;9900;48.738;9.306;2022-08-01T07:29:21;3.80;;;2.23;;
4652;SDS011;9900;48.738;9.306;2022-08-01T07:31:52;2.43;;;2.17;;
4652;SDS011;9900;48.738;9.306;2022-08-01T07:34:22;6.70;;;1.80;;
4652;SDS011;9900;48.738;9.306;2022-08-01T07:36:52;3.90;;;1.90;;
4652;SDS011;9900;48.738;9.306;2022-08-01T07:39:21;5.33;;;1.40;;
4652;SDS011;9900;48.738;9.306;2022-08-01T07:41:50;5.50;;;1.83;;
4652;SDS011;9900;48.738;9.306;2022-08-01T07:44:34;2.27;;;1.57;;
4652;SDS011;9900;48.738;9.306;2022-08-01T07:47:05;1.70;;;1.60;;
4652;SDS011;9900;48.738;9.306;2022-08-01T07:49:34;1.50;;;1.30;;
4652;SDS011;9900;48.738;9.306;2022-08-01T07:52:07;2.30;;;1.67;;
4652;SDS011;9900;48.738;9.306;2022-08-01T07:54:36;4.13;;;1.60;;
4652;SDS011;9900;48.738;9.306;2022-08-01T07:57:05;4.77;;;1.50;;
4652;SDS011;9900;48.738;9.306;2022-08-01T07:59:34;4.53;;;1.43;;
4652;SDS011;9900;48.738;9.306;2022-08-01T08:02:04;2.20;;;1.30;;
4652;SDS011;9900;48.738;9.306;2022-08-01T08:04:37;1.70;;;1.50;;
4652;SDS011;9900;48.738;9.306;2022-08-01T08:07:05;7.17;;;1.97;;
4652;SDS011;9900;48.738;9.306;2022-08-01T08:09:36;4.60;;;1.53;;
4652;SDS011;9900;48.738;9.306;2022-08-01T08:12:06;1.77;;;1.60;;
4652;SDS011;9900;48.738;9.306;2022-08-01T08:14:36;6.83;;;2.33;;
4652;SDS011;9900;48.738;9.306;2022-08-01T08:17:07;2.60;;;1.47;;
4652;SDS011;9900;48.738;9.306;2022-08-01T08:19:35;2.30;;;1.33;;
4652;SDS011;9900;48.738;9.306;2022-08-01T08:22:06;1.43;;;1.33;;
4652;SDS011;9900;48.738;9.306;2022-08-01T08:24:36;1.60;;;1.50;;
4652;SDS011;9900;48.738;9.306;2022-08-01T08:27:13;1.97;;;1.27;;
4652;SDS011;9900;48.738;9.306;2022-08-01T08:29:42;1.93;;;1.47;;
4652;SDS011;9900;48.738;9.306;2022-08-01T08:32:13;1.80;;;1.70;;
4652;SDS011;9900;48.738;9.306;2022-08-01T08:34:42;3.80;;;1.50;;
4652;SDS011;9900;48.738;9.306;2022-08-01T08:37:10;2.07;;;1.60;;
4652;SDS011;9900;48.738;9.306;2022-08-01T08:39:40;3.83;;;2.00;;
4652;SDS011;9900;48.738;9.306;2022-08-01T08:42:09;2.07;;;1.77;;
4652;SDS011;9900;48.738;9.306;2022-08-01T08:44:40;2.50;;;1.40;;
4652;SDS011;9900;48.738;9.306;2022-08-01T08:47:11;3.47;;;1.93;;
4652;SDS011;9900;48.738;9.306;2022-08-01T08:49:47;1.87;;;1.70;;
4652;SDS011;9900;48.738;9.306;2022-08-01T08:52:17;1.97;;;1.30;;
4652;SDS011;9900;48.738;9.306;2022-08-01T08:54:48;3.20;;;1.50;;
4652;SDS011;9900;48.738;9.306;2022-08-01T08:57:18;3.67;;;1.97;;
4652;SDS011;9900;48.738;9.306;2022-08-01T08:59:48;4.50;;;2.00;;
4652;SDS011;9900;48.738;9.306;2022-08-01T09:02:20;2.53;;;1.60;;
4652;SDS011;9900;48.738;9.306;2022-08-01T09:04:50;3.90;;;1.77;;
4652;SDS011;9900;48.738;9.306;2022-08-01T09:07:19;3.30;;;1.97;;
4652;SDS011;9900;48.738;9.306;2022-08-01T09:09:48;2.10;;;2.00;;
4652;SDS011;9900;48.738;9.306;2022-08-01T09:12:18;2.03;;;1.83;;
4652;SDS011;9900;48.738;9.306;2022-08-01T09:14:50;2.00;;;1.70;;
4652;SDS011;9900;48.738;9.306;2022-08-01T09:17:23;7.30;;;2.80;;
4652;SDS011;9900;48.738;9.306;2022-08-01T09:19:52;3.60;;;3.27;;
4652;SDS011;9900;48.738;9.306;2022-08-01T09:22:25;3.80;;;3.30;;
4652;SDS011;9900;48.738;9.306;2022-08-01T09:24:58;7.47;;;2.70;;
4652;SDS011;9900;48.738;9.306;2022-08-01T09:27:28;3.27;;;2.40;;
4652;SDS011;9900;48.738;9.306;2022-08-01T09:30:07;4.10;;;2.80;;
4652;SDS011;9900;48.738;9.306;2022-08-01T09:35:25;5.67;;;2.90;;
4652;SDS011;9900;48.738;9.306;2022-08-01T09:38:12;3.63;;;3.00;;
4652;SDS011;9900;48.738;9.306;2022-08-01T09:40:46;4.40;;;3.30;;
4652;SDS011;9900;48.738;9.306;2022-08-01T09:43:16;3.00;;;2.80;;
4652;SDS011;9900;48.738;9.306;2022-08-01T09:45:45;3.57;;;3.27;;
4652;SDS011;9900;48.738;9.306;2022-08-01T09:48:18;16.50;;;3.90;;
4652;SDS011;9900;48.738;9.306;2022-08-01T09:50:55;6.33;;;3.07;;
4652;SDS011;9900;48.738;9.306;2022-08-01T09:53:39;11.23;;;3.20;;
4652;SDS011;9900;48.738;9.306;2022-08-01T09:56:17;4.90;;;3.33;;
4652;SDS011;9900;48.738;9.306;2022-08-01T09:58:51;3.27;;;2.97;;
4652;SDS011;9900;48.738;9.306;2022-08-01T10:01:27;4.63;;;3.17;;
4652;SDS011;9900;48.738;9.306;2022-08-01T10:04:06;3.73;;;3.10;;
4652;SDS011;9900;48.738;9.306;2022-08-01T10:06:38;3.40;;;3.00;;
4652;SDS011;9900;48.738;9.306;2022-08-01T10:09:10;5.20;;;3.73;;
4652;SDS011;9900;48.738;9.306;2022-08-01T10:11:40;8.03;;;3.73;;
4652;SDS011;9900;48.738;9.306;2022-08-01T10:14:11;5.27;;;3.87;;
4652;SDS011;9900;48.738;9.306;2022-08-01T10:16:45;5.83;;;3.40;;
4652;SDS011;9900;48.738;9.306;2022-08-01T10:19:22;5.60;;;3.53;;
4652;SDS011;9900;48.738;9.306;2022-08-01T10:21:55;6.60;;;4.30;;
4652;SDS011;9900;48.738;9.306;2022-08-01T10:24:28;6.20;;;4.00;;
4652;SDS011;9900;48.738;9.306;2022-08-01T10:27:01;3.93;;;3.40;;
4652;SDS011;9900;48.738;9.306;2022-08-01T10:29:37;6.83;;;4.17;;
4652;SDS011;9900;48.738;9.306;2022-08-01T10:32:29;5.67;;;4.03;;
4652;SDS011;9900;48.738;9.306;2022-08-01T10:34:59;8.90;;;4.10;;
4652;SDS011;9900;48.738;9.306;2022-08-01T10:37:33;4.70;;;3.50;;
4652;SDS011;9900;48.738;9.306;2022-08-01T10:40:19;6.97;;;3.43;;
4652;SDS011;9900;48.738;9.306;2022-08-01T10:42:58;3.40;;;3.10;;
4652;SDS011;9900;48.738;9.306;2022-08-01T10:45:27;5.97;;;3.90;;
4652;SDS011;9900;48.738;9.306;2022-08-01T10:47:59;4.70;;;3.33;;
4652;SDS011;9900;48.738;9.306;2022-08-01T10:50:33;3.50;;;3.20;;
4652;SDS011;9900;48.738;9.306;2022-08-01T10:53:07;6.47;;;3.70;;
4652;SDS011;9900;48.738;9.306;2022-08-01T10:55:46;3.60;;;3.30;;
4652;SDS011;9900;48.738;9.306;2022-08-01T10:58:20;5.20;;;3.20;;
4652;SDS011;9900;48.738;9.306;2022-08-01T11:06:49;7.47;;;3.30;;
4652;SDS011;9900;48.738;9.306;2022-08-01T11:09:27;3.30;;;3.00;;
4652;SDS011;9900;48.738;9.306;2022-08-01T11:12:05;6.10;;;3.20;;
4652;SDS011;9900;48.738;9.306;2022-08-01T11:17:58;4.57;;;2.40;;
4652;SDS011;9900;48.738;9.306;2022-08-01T11:20:29;4.63;;;2.70;;
4652;SDS011;9900;48.738;9.306;2022-08-01T11:26:06;2.60;;;2.40;;
4652;SDS011;9900;48.738;9.306;2022-08-01T11:28:37;4.13;;;2.33;;
4652;SDS011;9900;48.738;9.306;2022-08-01T11:31:28;2.47;;;2.27;;
4652;SDS011;9900;48.738;9.306;2022-08-01T11:34:04;2.80;;;2.60;;
4652;SDS011;9900;48.738;9.306;2022-08-01T11:36:33;2.67;;;2.37;;
4652;SDS011;9900;48.738;9.306;2022-08-01T11:39:24;2.57;;;2.40;;
4652;SDS011;9900;48.738;9.306;2022-08-01T11:41:53;2.10;;;1.90;;
4652;SDS011;9900;48.738;9.306;2022-08-01T11:44:24;3.10;;;2.10;;
4652;SDS011;9900;48.738;9.306;2022-08-01T11:46:58;4.30;;;1.80;;
4652;SDS011;9900;48.738;9.306;2022-08-01T11:52:26;2.20;;;2.00;;
4652;SDS011;9900;48.738;9.306;2022-08-01T11:55:00;2.83;;;2.00;;
4652;SDS011;9900;48.738;9.306;2022-08-01T11:57:36;3.00;;;2.00;;
4652;SDS011;9900;48.738;9.306;2022-08-01T12:00:10;2.20;;;2.10;;
4652;SDS011;9900;48.738;9.306;2022-08-01T12:02:43;3.60;;;2.70;;
4652;SDS011;9900;48.738;9.306;2022-08-01T12:05:13;2.13;;;1.90;;
4652;SDS011;9900;48.738;9.306;2022-08-01T12:07:47;2.90;;;2.10;;
4652;SDS011;9900;48.738;9.306;2022-08-01T12:10:20;2.53;;;2.33;;
4652;SDS011;9900;48.738;9.306;2022-08-01T12:12:50;2.20;;;2.00;;
4652;SDS011;9900;48.738;9.306;2022-08-01T12:15:22;1.93;;;1.80;;
4652;SDS011;9900;48.738;9.306;2022-08-01T12:17:55;5.20;;;2.73;;
4652;SDS011;9900;48.738;9.306;2022-08-01T12:20:27;1.90;;;1.80;;
4652;SDS011;9900;48.738;9.306;2022-08-01T12:22:58;3.43;;;2.60;;
4652;SDS011;9900;48.738;9.306;2022-08-01T12:25:29;7.63;;;2.20;;
4652;SDS011;9900;48.738;9.306;2022-08-01T12:27:59;4.60;;;2.00;;
4652;SDS011;9900;48.738;9.306;2022-08-01T12:30:29;3.23;;;2.33;;
4652;SDS011;9900;48.738;9.306;2022-08-01T12:33:02;2.23;;;2.03;;
4652;SDS011;9900;48.738;9.306;2022-08-01T12:35:32;5.27;;;2.13;;
4652;SDS011;9900;48.738;9.306;2022-08-01T12:38:04;2.17;;;1.97;;
4652;SDS011;9900;48.738;9.306;2022-08-01T12:40:40;5.13;;;2.13;;
4652;SDS011;9900;48.738;9.306;2022-08-01T12:43:15;4.43;;;1.97;;
4652;SDS011;9900;48.738;9.306;2022-08-01T12:45:54;2.17;;;1.80;;
4652;SDS011;9900;48.738;9.306;2022-08-01T12:48:24;2.00;;;1.90;;
4652;SDS011;9900;48.738;9.306;2022-08-01T12:50:53;2.40;;;1.77;;
4652;SDS011;9900;48.738;9.306;2022-08-01T12:53:25;2.53;;;2.33;;
4652;SDS011;9900;48.738;9.306;2022-08-01T12:56:09;2.80;;;2.27;;
4652;SDS011;9900;48.738;9.306;2022-08-01T12:58:38;4.40;;;2.00;;
4652;SDS011;9900;48.738;9.306;2022-08-01T13:01:08;7.90;;;2.23;;
4652;SDS011;9900;48.738;9.306;2022-08-01T13:03:39;3.07;;;2.23;;
4652;SDS011;9900;48.738;9.306;2022-08-01T13:06:12;3.47;;;1.90;;
4652;SDS011;9900;48.738;9.306;2022-08-01T13:08:43;5.23;;;2.40;;
4652;SDS011;9900;48.738;9.306;2022-08-01T13:11:14;2.27;;;1.90;;
4652;SDS011;9900;48.738;9.306;2022-08-01T13:13:46;3.87;;;2.00;;
4652;SDS011;9900;48.738;9.306;2022-08-01T13:16:16;1.77;;;1.67;;
4652;SDS011;9900;48.738;9.306;2022-08-01T13:19:05;2.40;;;2.17;;
4652;SDS011;9900;48.738;9.306;2022-08-01T13:21:34;4.80;;;2.20;;
4652;SDS011;9900;48.738;9.306;2022-08-01T13:24:25;2.17;;;2.00;;
4652;SDS011;9900;48.738;9.306;2022-08-01T13:27:02;3.10;;;2.07;;
4652;SDS011;9900;48.738;9.306;2022-08-01T13:29:32;3.20;;;2.27;;
4652;SDS011;9900;48.738;9.306;2022-08-01T13:32:11;2.10;;;1.83;;
4652;SDS011;9900;48.738;9.306;2022-08-01T13:35:03;5.17;;;1.87;;
4652;SDS011;9900;48.738;9.306;2022-08-01T13:37:33;6.33;;;2.03;;
4652;SDS011;9900;48.738;9.306;2022-08-01T13:40:05;2.33;;;2.13;;
4652;SDS011;9900;48.738;9.306;2022-08-01T13:42:36;9.13;;;2.53;;
4652;SDS011;9900;48.738;9.306;2022-08-01T13:45:06;3.93;;;2.00;;
4652;SDS011;9900;48.738;9.306;2022-08-01T13:47:41;1.97;;;1.70;;
4652;SDS011;9900;48.738;9.306;2022-08-01T13:50:30;5.10;;;1.77;;
4652;SDS011;9900;48.738;9.306;2022-08-01T13:52:59;2.57;;;1.80;;
4652;SDS011;9900;48.738;9.306;2022-08-01T13:55:28;4.23;;;1.93;;
4652;SDS011;9900;48.738;9.306;2022-08-01T13:58:03;1.80;;;1.70;;
4652;SDS011;9900;48.738;9.306;2022-08-01T14:00:32;2.27;;;1.50;;
4652;SDS011;9900;48.738;9.306;2022-08-01T14:03:02;4.37;;;2.60;;
4652;SDS011;9900;48.738;9.306;2022-08-01T14:05:32;5.23;;;1.70;;
4652;SDS011;9900;48.738;9.306;2022-08-01T14:08:01;6.30;;;1.80;;
4652;SDS011;9900;48.738;9.306;2022-08-01T14:10:30;5.47;;;2.00;;
4652;SDS011;9900;48.738;9.306;2022-08-01T14:12:59;3.70;;;2.10;;
4652;SDS011;9900;48.738;9.306;2022-08-01T14:15:30;4.10;;;1.57;;
4652;SDS011;9900;48.738;9.306;2022-08-01T14:18:06;4.23;;;2.00;;
4652;SDS011;9900;48.738;9.306;2022-08-01T14:20:37;6.40;;;2.00;;
4652;SDS011;9900;48.738;9.306;2022-08-01T14:23:07;3.67;;;1.70;;
4652;SDS011;9900;48.738;9.306;2022-08-01T14:25:36;1.90;;;1.80;;
4652;SDS011;9900;48.738;9.306;2022-08-01T14:28:25;5.30;;;1.83;;
4652;SDS011;9900;48.738;9.306;2022-08-01T14:30:57;6.70;;;1.70;;
4652;SDS011;9900;48.738;9.306;2022-08-01T14:33:26;1.70;;;1.60;;
4652;SDS011;9900;48.738;9.306;2022-08-01T14:35:56;2.77;;;1.70;;
4652;SDS011;9900;48.738;9.306;2022-08-01T14:38:33;2.90;;;1.57;;
4652;SDS011;9900;48.738;9.306;2022-08-01T14:41:03;1.90;;;1.77;;
4652;SDS011;9900;48.738;9.306;2022-08-01T14:43:34;1.80;;;1.70;;
4652;SDS011;9900;48.738;9.306;2022-08-01T14:46:04;1.80;;;1.70;;
4652;SDS011;9900;48.738;9.306;2022-08-01T14:48:35;1.63;;;1.53;;
4652;SDS011;9900;48.738;9.306;2022-08-01T14:51:04;4.23;;;1.90;;
4652;SDS011;9900;48.738;9.306;2022-08-01T14:53:34;2.50;;;1.73;;
4652;SDS011;9900;48.738;9.306;2022-08-01T14:56:05;2.17;;;1.87;;
4652;SDS011;9900;48.738;9.306;2022-08-01T14:58:35;2.27;;;1.80;;
4652;SDS011;9900;48.738;9.306;2022-08-01T15:01:06;5.87;;;2.00;;
4652;SDS011;9900;48.738;9.306;2022-08-01T15:03:35;2.00;;;1.80;;
4652;SDS011;9900;48.738;9.306;2022-08-01T15:06:04;2.53;;;1.70;;
4652;SDS011;9900;48.738;9.306;2022-08-01T15:08:34;1.90;;;1.80;;
4652;SDS011;9900;48.738;9.306;2022-08-01T15:11:03;4.33;;;2.00;;
4652;SDS011;9900;48.738;9.306;2022-08-01T15:13:31;2.53;;;1.60;;
4652;SDS011;9900;48.738;9.306;2022-08-01T15:16:06;6.90;;;1.80;;
4652;SDS011;9900;48.738;9.306;2022-08-01T15:18:38;5.13;;;2.03;;
4652;SDS011;9900;48.738;9.306;2022-08-01T15:21:09;2.90;;;1.93;;
4652;SDS011;9900;48.738;9.306;2022-08-01T15:23:58;2.70;;;1.90;;
4652;SDS011;9900;48.738;9.306;2022-08-01T15:26:27;1.70;;;1.60;;
4652;SDS011;9900;48.738;9.306;2022-08-01T15:28:56;2.07;;;1.80;;
4652;SDS011;9900;48.738;9.306;2022-08-01T15:31:27;2.20;;;2.00;;
4652;SDS011;9900;48.738;9.306;2022-08-01T15:33:56;6.40;;;1.80;;
4652;SDS011;9900;48.738;9.306;2022-08-01T15:36:28;2.60;;;1.67;;
4652;SDS011;9900;48.738;9.306;2022-08-01T15:38:58;1.93;;;1.77;;
4652;SDS011;9900;48.738;9.306;2022-08-01T15:41:27;3.03;;;1.63;;
4652;SDS011;9900;48.738;9.306;2022-08-01T15:43:57;1.80;;;1.70;;
4652;SDS011;9900;48.738;9.306;2022-08-01T15:46:27;2.40;;;1.80;;
4652;SDS011;9900;48.738;9.306;2022-08-01T15:48:56;2.10;;;1.70;;
4652;SDS011;9900;48.738;9.306;2022-08-01T15:51:25;2.13;;;1.70;;
4652;SDS011;9900;48.738;9.306;2022-08-01T15:53:54;2.13;;;1.50;;
4652;SDS011;9900;48.738;9.306;2022-08-01T15:56:23;2.03;;;1.70;;
4652;SDS011;9900;48.738;9.306;2022-08-01T15:58:52;4.10;;;1.67;;
4652;SDS011;9900;48.738;9.306;2022-08-01T16:01:21;3.07;;;1.40;;
4652;SDS011;9900;48.738;9.306;2022-08-01T16:03:54;3.73;;;1.80;;
4652;SDS011;9900;48.738;9.306;2022-08-01T16:06:27;4.07;;;2.00;;
4652;SDS011;9900;48.738;9.306;2022-08-01T16:08:56;3.33;;;2.30;;
4652;SDS011;9900;48.738;9.306;2022-08-01T16:11:25;2.00;;;1.80;;